sensor_id;sensor_type;location;lat;lon;timestamp;pressure;altitude;pressure_sealevel;temperature;humidity
49102;BME280;34913;47.520;19.186;2023-04-20T00:00:46;99800.28;;;8.20;94.21
49102;BME280;34913;47.520;19.186;2023-04-20T00:03:12;99796.19;;;8.16;94.41
49102;BME280;34913;47.520;19.186;2023-04-20T00:05:37;99786.34;;;8.18;95.00
49102;BME280;34913;47.520;19.186;2023-04-20T00:08:03;99792.84;;;8.25;94.64
49102;BME280;34913;47.520;19.186;2023-04-20T00:10:29;99787.69;;;8.24;94.02
49102;BME280;34913;47.520;19.186;2023-04-20T00:12:54;99786.84;;;8.23;93.81
49102;BME280;34913;47.520;19.186;2023-04-20T00:15:20;99780.28;;;8.05;93.20
49102;BME280;34913;47.520;19.186;2023-04-20T00:17:48;99792.53;;;7.95;94.31
49102;BME280;34913;47.520;19.186;2023-04-20T00:20:14;99789.03;;;7.94;94.54
49102;BME280;34913;47.520;19.186;2023-04-20T00:22:39;99802.13;;;7.96;94.20
49102;BME280;34913;47.520;19.186;2023-04-20T00:25:05;99791.69;;;7.94;93.85
49102;BME280;34913;47.520;19.186;2023-04-20T00:27:31;99796.44;;;7.89;93.96
49102;BME280;34913;47.520;19.186;2023-04-20T00:29:56;99789.59;;;7.87;94.14
49102;BME280;34913;47.520;19.186;2023-04-20T00:32:22;99785.16;;;7.87;93.94
49102;BME280;34913;47.520;19.186;2023-04-20T00:34:47;99781.66;;;7.75;93.49
49102;BME280;34913;47.520;19.186;2023-04-20T00:37:13;99788.91;;;7.61;94.81
49102;BME280;34913;47.520;19.186;2023-04-20T00:39:38;99783.34;;;7.52;95.51
49102;BME280;34913;47.520;19.186;2023-04-20T00:42:08;99787.78;;;7.52;95.13
49102;BME280;34913;47.520;19.186;2023-04-20T00:44:34;99779.97;;;7.50;94.66
49102;BME280;34913;47.520;19.186;2023-04-20T00:47:00;99779.59;;;7.44;95.10
49102;BME280;34913;47.520;19.186;2023-04-20T00:49:28;99775.88;;;7.46;94.91
49102;BME280;34913;47.520;19.186;2023-04-20T00:51:56;99777.34;;;7.50;94.26
49102;BME280;34913;47.520;19.186;2023-04-20T00:54:22;99772.53;;;7.55;94.52
49102;BME280;34913;47.520;19.186;2023-04-20T00:56:47;99770.81;;;7.67;93.59
49102;BME280;34913;47.520;19.186;2023-04-20T00:59:14;99775.81;;;7.59;93.20
49102;BME280;34913;47.520;19.186;2023-04-20T01:01:39;99775.59;;;7.62;93.42
49102;BME280;34913;47.520;19.186;2023-04-20T01:04:05;99772.66;;;7.54;92.98
49102;BME280;34913;47.520;19.186;2023-04-20T01:06:31;99766.03;;;7.48;94.03
49102;BME280;34913;47.520;19.186;2023-04-20T01:08:57;99773.53;;;7.42;94.20
49102;BME280;34913;47.520;19.186;2023-04-20T01:11:22;99767.63;;;7.27;94.64
49102;BME280;34913;47.520;19.186;2023-04-20T01:13:48;99772.09;;;7.14;95.64
49102;BME280;34913;47.520;19.186;2023-04-20T01:16:14;99770.94;;;7.05;96.28
49102;BME280;34913;47.520;19.186;2023-04-20T01:18:47;99766.84;;;7.01;96.36
49102;BME280;34913;47.520;19.186;2023-04-20T01:21:15;99765.25;;;6.98;96.63
49102;BME280;34913;47.520;19.186;2023-04-20T01:23:41;99764.00;;;7.04;96.86
49102;BME280;34913;47.520;19.186;2023-04-20T01:26:09;99767.25;;;7.08;96.52
49102;BME280;34913;47.520;19.186;2023-04-20T01:28:35;99769.03;;;7.07;95.83
49102;BME280;34913;47.520;19.186;2023-04-20T01:31:04;99774.31;;;7.07;96.02
49102;BME280;34913;47.520;19.186;2023-04-20T01:33:30;99770.31;;;7.02;95.96
49102;BME280;34913;47.520;19.186;2023-04-20T01:35:56;99764.19;;;7.01;96.28
49102;BME280;34913;47.520;19.186;2023-04-20T01:38:23;99771.81;;;6.93;96.12
49102;BME280;34913;47.520;19.186;2023-04-20T01:40:48;99762.34;;;6.78;96.35
49102;BME280;34913;47.520;19.186;2023-04-20T01:43:14;99765.03;;;6.65;97.21
49102;BME280;34913;47.520;19.186;2023-04-20T01:45:40;99770.94;;;6.56;98.29
49102;BME280;34913;47.520;19.186;2023-04-20T01:48:05;99763.94;;;6.55;98.75
49102;BME280;34913;47.520;19.186;2023-04-20T01:50:31;99762.38;;;6.52;98.91
49102;BME280;34913;47.520;19.186;2023-04-20T01:52:56;99763.22;;;6.53;98.89
49102;BME280;34913;47.520;19.186;2023-04-20T01:55:22;99764.19;;;6.52;98.72
49102;BME280;34913;47.520;19.186;2023-04-20T01:57:47;99761.53;;;6.52;99.12
49102;BME280;34913;47.520;19.186;2023-04-20T02:00:14;99761.66;;;6.50;99.30
49102;BME280;34913;47.520;19.186;2023-04-20T02:02:40;99774.09;;;6.48;99.73
49102;BME280;34913;47.520;19.186;2023-04-20T02:05:06;99770.94;;;6.56;100.00
49102;BME280;34913;47.520;19.186;2023-04-20T02:07:32;99761.22;;;6.56;99.73
49102;BME280;34913;47.520;19.186;2023-04-20T02:09:57;99767.13;;;6.72;99.66
49102;BME280;34913;47.520;19.186;2023-04-20T02:12:23;99771.81;;;6.93;98.79
49102;BME280;34913;47.520;19.186;2023-04-20T02:14:48;99771.31;;;6.88;98.18
49102;BME280;34913;47.520;19.186;2023-04-20T02:17:14;99768.88;;;6.85;98.24
49102;BME280;34913;47.520;19.186;2023-04-20T02:19:39;99771.09;;;6.78;97.94
49102;BME280;34913;47.520;19.186;2023-04-20T02:22:05;99775.03;;;6.72;98.49
49102;BME280;34913;47.520;19.186;2023-04-20T02:24:31;99777.31;;;6.77;98.79
49102;BME280;34913;47.520;19.186;2023-04-20T02:26:56;99767.00;;;6.74;97.92
49102;BME280;34913;47.520;19.186;2023-04-20T02:29:23;99778.63;;;6.71;98.07
49102;BME280;34913;47.520;19.186;2023-04-20T02:31:49;99774.69;;;6.77;98.40
49102;BME280;34913;47.520;19.186;2023-04-20T02:34:14;99776.69;;;6.86;97.85
49102;BME280;34913;47.520;19.186;2023-04-20T02:36:40;99781.03;;;6.87;96.67
49102;BME280;34913;47.520;19.186;2023-04-20T02:39:05;99778.59;;;6.84;96.55
49102;BME280;34913;47.520;19.186;2023-04-20T02:41:31;99784.06;;;6.94;97.25
49102;BME280;34913;47.520;19.186;2023-04-20T02:43:57;99779.53;;;6.96;97.82
49102;BME280;34913;47.520;19.186;2023-04-20T02:46:22;99779.59;;;6.94;97.42
49102;BME280;34913;47.520;19.186;2023-04-20T02:48:47;99789.19;;;7.08;97.74
49102;BME280;34913;47.520;19.186;2023-04-20T02:51:13;99781.16;;;7.10;97.75
49102;BME280;34913;47.520;19.186;2023-04-20T02:53:38;99788.13;;;7.11;97.24
49102;BME280;34913;47.520;19.186;2023-04-20T02:56:07;99782.84;;;7.11;96.85
49102;BME280;34913;47.520;19.186;2023-04-20T02:58:32;99785.88;;;7.17;97.13
49102;BME280;34913;47.520;19.186;2023-04-20T03:00:59;99791.09;;;7.19;96.92
49102;BME280;34913;47.520;19.186;2023-04-20T03:03:26;99789.16;;;7.21;96.75
49102;BME280;34913;47.520;19.186;2023-04-20T03:05:52;99789.06;;;7.22;95.84
49102;BME280;34913;47.520;19.186;2023-04-20T03:08:17;99795.00;;;7.13;95.59
49102;BME280;34913;47.520;19.186;2023-04-20T03:10:43;99790.69;;;7.12;96.05
49102;BME280;34913;47.520;19.186;2023-04-20T03:13:08;99788.06;;;6.99;95.61
49102;BME280;34913;47.520;19.186;2023-04-20T03:15:34;99792.06;;;7.05;96.28
49102;BME280;34913;47.520;19.186;2023-04-20T03:17:59;99789.41;;;7.05;96.02
49102;BME280;34913;47.520;19.186;2023-04-20T03:20:25;99783.06;;;7.08;95.39
49102;BME280;34913;47.520;19.186;2023-04-20T03:22:51;99790.16;;;7.07;94.76
49102;BME280;34913;47.520;19.186;2023-04-20T03:25:16;99788.69;;;7.03;94.36
49102;BME280;34913;47.520;19.186;2023-04-20T03:27:44;99794.59;;;6.94;94.47
49102;BME280;34913;47.520;19.186;2023-04-20T03:30:10;99789.69;;;6.77;95.16
49102;BME280;34913;47.520;19.186;2023-04-20T03:32:36;99793.69;;;6.69;95.45
49102;BME280;34913;47.520;19.186;2023-04-20T03:35:03;99788.75;;;6.65;96.26
49102;BME280;34913;47.520;19.186;2023-04-20T03:37:29;99796.34;;;6.57;96.88
49102;BME280;34913;47.520;19.186;2023-04-20T03:39:55;99798.78;;;6.60;97.03
49102;BME280;34913;47.520;19.186;2023-04-20T03:42:20;99802.03;;;6.63;96.86
49102;BME280;34913;47.520;19.186;2023-04-20T03:44:45;99804.25;;;6.69;96.30
49102;BME280;34913;47.520;19.186;2023-04-20T03:47:11;99799.31;;;6.65;95.77
49102;BME280;34913;47.520;19.186;2023-04-20T03:49:37;99802.03;;;6.63;95.65
49102;BME280;34913;47.520;19.186;2023-04-20T03:52:03;99807.22;;;6.52;96.11
49102;BME280;34913;47.520;19.186;2023-04-20T03:54:28;99809.75;;;6.41;96.42
49102;BME280;34913;47.520;19.186;2023-04-20T03:56:54;99811.97;;;6.34;96.76
49102;BME280;34913;47.520;19.186;2023-04-20T03:59:20;99816.16;;;6.24;97.18
49102;BME280;34913;47.520;19.186;2023-04-20T04:01:45;99810.34;;;6.19;97.89
49102;BME280;34913;47.520;19.186;2023-04-20T04:04:10;99807.84;;;6.18;98.57
49102;BME280;34913;47.520;19.186;2023-04-20T04:06:36;99815.75;;;6.18;98.89
49102;BME280;34913;47.520;19.186;2023-04-20T04:09:01;99812.25;;;6.17;99.01
49102;BME280;34913;47.520;19.186;2023-04-20T04:11:27;99813.22;;;6.29;99.75
49102;BME280;34913;47.520;19.186;2023-04-20T04:13:54;99816.06;;;6.38;100.00
49102;BME280;34913;47.520;19.186;2023-04-20T04:16:20;99811.88;;;6.49;100.00
49102;BME280;34913;47.520;19.186;2023-04-20T04:18:45;99810.38;;;6.57;99.28
49102;BME280;34913;47.520;19.186;2023-04-20T04:21:11;99818.38;;;6.68;99.00
49102;BME280;34913;47.520;19.186;2023-04-20T04:23:37;99818.06;;;6.73;98.21
49102;BME280;34913;47.520;19.186;2023-04-20T04:26:02;99804.03;;;6.72;97.71
49102;BME280;34913;47.520;19.186;2023-04-20T04:28:29;99805.63;;;6.75;97.87
49102;BME280;34913;47.520;19.186;2023-04-20T04:30:56;99801.28;;;6.74;97.91
49102;BME280;34913;47.520;19.186;2023-04-20T04:33:21;99807.31;;;6.76;98.45
49102;BME280;34913;47.520;19.186;2023-04-20T04:35:47;99812.16;;;6.82;99.14
49102;BME280;34913;47.520;19.186;2023-04-20T04:38:13;99808.88;;;6.91;99.17
49102;BME280;34913;47.520;19.186;2023-04-20T04:40:39;99812.44;;;7.03;99.19
49102;BME280;34913;47.520;19.186;2023-04-20T04:43:07;99806.47;;;7.25;98.70
49102;BME280;34913;47.520;19.186;2023-04-20T04:45:38;99813.28;;;7.40;98.28
49102;BME280;34913;47.520;19.186;2023-04-20T04:48:07;99814.91;;;7.54;97.59
49102;BME280;34913;47.520;19.186;2023-04-20T04:50:36;99818.69;;;7.63;96.99
49102;BME280;34913;47.520;19.186;2023-04-20T04:53:02;99822.25;;;7.74;96.40
49102;BME280;34913;47.520;19.186;2023-04-20T04:55:27;99818.16;;;7.81;96.34
49102;BME280;34913;47.520;19.186;2023-04-20T04:57:52;99812.25;;;8.02;95.64
49102;BME280;34913;47.520;19.186;2023-04-20T05:00:18;99816.13;;;8.20;94.96
49102;BME280;34913;47.520;19.186;2023-04-20T05:02:43;99819.34;;;8.36;93.62
49102;BME280;34913;47.520;19.186;2023-04-20T05:05:09;99812.78;;;8.64;92.42
49102;BME280;34913;47.520;19.186;2023-04-20T05:07:34;99815.91;;;8.81;90.29
49102;BME280;34913;47.520;19.186;2023-04-20T05:10:00;99818.56;;;8.92;89.80
49102;BME280;34913;47.520;19.186;2023-04-20T05:12:25;99818.19;;;8.97;89.40
49102;BME280;34913;47.520;19.186;2023-04-20T05:14:51;99826.84;;;8.99;89.13
49102;BME280;34913;47.520;19.186;2023-04-20T05:17:17;99825.66;;;9.03;88.88
49102;BME280;34913;47.520;19.186;2023-04-20T05:19:42;99828.78;;;9.08;88.61
49102;BME280;34913;47.520;19.186;2023-04-20T05:22:08;99828.28;;;9.14;88.45
49102;BME280;34913;47.520;19.186;2023-04-20T05:24:33;99837.09;;;9.26;87.66
49102;BME280;34913;47.520;19.186;2023-04-20T05:26:59;99835.72;;;9.31;87.07
49102;BME280;34913;47.520;19.186;2023-04-20T05:29:25;99836.47;;;9.33;86.88
49102;BME280;34913;47.520;19.186;2023-04-20T05:31:51;99828.13;;;9.38;87.41
49102;BME280;34913;47.520;19.186;2023-04-20T05:34:16;99834.63;;;9.45;87.08
49102;BME280;34913;47.520;19.186;2023-04-20T05:36:42;99831.59;;;9.61;86.22
49102;BME280;34913;47.520;19.186;2023-04-20T05:39:07;99842.00;;;9.85;85.33
49102;BME280;34913;47.520;19.186;2023-04-20T05:41:34;99834.72;;;10.19;82.69
49102;BME280;34913;47.520;19.186;2023-04-20T05:44:00;99839.56;;;10.46;82.01
49102;BME280;34913;47.520;19.186;2023-04-20T05:46:25;99839.25;;;10.60;82.07
49102;BME280;34913;47.520;19.186;2023-04-20T05:48:51;99841.00;;;11.01;79.66
49102;BME280;34913;47.520;19.186;2023-04-20T05:51:16;99839.47;;;11.49;78.58
49102;BME280;34913;47.520;19.186;2023-04-20T05:53:41;99846.16;;;11.93;76.15
49102;BME280;34913;47.520;19.186;2023-04-20T05:56:07;99846.69;;;12.45;73.23
49102;BME280;34913;47.520;19.186;2023-04-20T05:58:34;99849.53;;;12.90;71.78
49102;BME280;34913;47.520;19.186;2023-04-20T06:01:02;99857.34;;;13.01;71.47
49102;BME280;34913;47.520;19.186;2023-04-20T06:03:28;99843.06;;;13.57;68.53
49102;BME280;34913;47.520;19.186;2023-04-20T06:05:53;99851.28;;;13.91;67.47
49102;BME280;34913;47.520;19.186;2023-04-20T06:08:19;99854.56;;;14.39;65.19
49102;BME280;34913;47.520;19.186;2023-04-20T06:10:45;99858.31;;;14.72;64.00
49102;BME280;34913;47.520;19.186;2023-04-20T06:13:10;99850.66;;;15.03;63.28
49102;BME280;34913;47.520;19.186;2023-04-20T06:15:35;99853.88;;;15.15;62.71
49102;BME280;34913;47.520;19.186;2023-04-20T06:18:01;99851.34;;;15.47;62.02
49102;BME280;34913;47.520;19.186;2023-04-20T06:20:27;99849.75;;;15.62;60.76
49102;BME280;34913;47.520;19.186;2023-04-20T06:22:52;99843.84;;;16.09;58.77
49102;BME280;34913;47.520;19.186;2023-04-20T06:25:18;99850.03;;;16.34;57.54
49102;BME280;34913;47.520;19.186;2023-04-20T06:27:43;99851.03;;;16.58;57.69
49102;BME280;34913;47.520;19.186;2023-04-20T06:30:10;99845.84;;;16.81;56.61
49102;BME280;34913;47.520;19.186;2023-04-20T06:32:35;99838.97;;;16.94;57.11
49102;BME280;34913;47.520;19.186;2023-04-20T06:35:02;99837.44;;;17.00;55.74
49102;BME280;34913;47.520;19.186;2023-04-20T06:37:28;99842.53;;;17.26;53.66
49102;BME280;34913;47.520;19.186;2023-04-20T06:39:53;99846.69;;;16.81;52.52
49102;BME280;34913;47.520;19.186;2023-04-20T06:42:20;99847.34;;;16.18;54.79
49102;BME280;34913;47.520;19.186;2023-04-20T06:44:45;99847.69;;;16.15;59.07
49102;BME280;34913;47.520;19.186;2023-04-20T06:47:11;99850.91;;;16.59;56.63
49102;BME280;34913;47.520;19.186;2023-04-20T06:49:36;99847.03;;;16.62;52.74
49102;BME280;34913;47.520;19.186;2023-04-20T06:52:04;99848.16;;;17.08;51.96
49102;BME280;34913;47.520;19.186;2023-04-20T06:54:30;99847.28;;;17.55;51.58
49102;BME280;34913;47.520;19.186;2023-04-20T06:56:56;99850.63;;;17.18;50.95
49102;BME280;34913;47.520;19.186;2023-04-20T06:59:21;99846.16;;;17.02;51.33
49102;BME280;34913;47.520;19.186;2023-04-20T07:01:47;99851.22;;;16.48;51.61
49102;BME280;34913;47.520;19.186;2023-04-20T07:04:12;99850.22;;;16.33;51.47
49102;BME280;34913;47.520;19.186;2023-04-20T07:06:37;99850.03;;;16.02;52.27
49102;BME280;34913;47.520;19.186;2023-04-20T07:09:03;99858.06;;;16.18;52.05
49102;BME280;34913;47.520;19.186;2023-04-20T07:11:29;99857.75;;;16.37;50.87
49102;BME280;34913;47.520;19.186;2023-04-20T07:13:54;99853.25;;;16.30;52.73
49102;BME280;34913;47.520;19.186;2023-04-20T07:16:20;99857.94;;;16.28;51.27
49102;BME280;34913;47.520;19.186;2023-04-20T07:18:45;99861.59;;;16.27;53.80
49102;BME280;34913;47.520;19.186;2023-04-20T07:21:11;99859.06;;;16.58;53.53
49102;BME280;34913;47.520;19.186;2023-04-20T07:23:36;99863.28;;;16.52;54.35
49102;BME280;34913;47.520;19.186;2023-04-20T07:26:02;99861.38;;;17.10;53.45
49102;BME280;34913;47.520;19.186;2023-04-20T07:28:27;99866.25;;;17.45;50.75
49102;BME280;34913;47.520;19.186;2023-04-20T07:30:52;99864.03;;;17.18;50.73
49102;BME280;34913;47.520;19.186;2023-04-20T07:33:18;99861.75;;;16.58;52.47
49102;BME280;34913;47.520;19.186;2023-04-20T07:35:45;99863.09;;;16.86;55.70
49102;BME280;34913;47.520;19.186;2023-04-20T07:38:14;99858.34;;;17.52;51.29
49102;BME280;34913;47.520;19.186;2023-04-20T07:40:39;99861.41;;;17.88;50.64
49102;BME280;34913;47.520;19.186;2023-04-20T07:43:05;99859.41;;;17.82;51.40
49102;BME280;34913;47.520;19.186;2023-04-20T07:45:30;99860.56;;;17.88;51.52
49102;BME280;34913;47.520;19.186;2023-04-20T07:47:56;99860.41;;;18.12;49.10
49102;BME280;34913;47.520;19.186;2023-04-20T07:50:21;99861.09;;;18.06;48.30
49102;BME280;34913;47.520;19.186;2023-04-20T07:52:47;99860.72;;;18.17;48.53
49102;BME280;34913;47.520;19.186;2023-04-20T07:55:12;99864.16;;;18.03;48.61
49102;BME280;34913;47.520;19.186;2023-04-20T07:57:38;99858.09;;;17.78;46.23
49102;BME280;34913;47.520;19.186;2023-04-20T08:00:05;99860.41;;;17.42;48.10
49102;BME280;34913;47.520;19.186;2023-04-20T08:02:34;99860.97;;;17.99;47.48
49102;BME280;34913;47.520;19.186;2023-04-20T08:05:03;99864.88;;;17.97;46.85
49102;BME280;34913;47.520;19.186;2023-04-20T08:07:29;99863.28;;;18.48;47.48
49102;BME280;34913;47.520;19.186;2023-04-20T08:09:54;99858.25;;;17.76;46.76
49102;BME280;34913;47.520;19.186;2023-04-20T08:12:21;99858.13;;;18.24;46.51
49102;BME280;34913;47.520;19.186;2023-04-20T08:14:46;99860.78;;;18.47;47.15
49102;BME280;34913;47.520;19.186;2023-04-20T08:17:12;99858.94;;;18.47;47.56
49102;BME280;34913;47.520;19.186;2023-04-20T08:19:37;99862.03;;;18.82;46.40
49102;BME280;34913;47.520;19.186;2023-04-20T08:22:04;99863.53;;;18.99;46.95
49102;BME280;34913;47.520;19.186;2023-04-20T08:24:30;99859.72;;;19.08;44.98
49102;BME280;34913;47.520;19.186;2023-04-20T08:26:55;99849.25;;;18.99;44.23
49102;BME280;34913;47.520;19.186;2023-04-20T08:29:21;99862.81;;;19.05;45.24
49102;BME280;34913;47.520;19.186;2023-04-20T08:31:46;99856.94;;;19.16;45.86
49102;BME280;34913;47.520;19.186;2023-04-20T08:34:12;99855.47;;;19.14;44.27
49102;BME280;34913;47.520;19.186;2023-04-20T08:36:37;99848.59;;;19.11;45.74
49102;BME280;34913;47.520;19.186;2023-04-20T08:41:31;99851.63;;;18.79;46.77
49102;BME280;34913;47.520;19.186;2023-04-20T08:43:57;99851.94;;;18.99;45.68
49102;BME280;34913;47.520;19.186;2023-04-20T08:46:23;99856.66;;;19.11;44.01
49102;BME280;34913;47.520;19.186;2023-04-20T08:48:49;99854.75;;;19.20;43.40
49102;BME280;34913;47.520;19.186;2023-04-20T08:51:15;99842.91;;;19.50;43.46
49102;BME280;34913;47.520;19.186;2023-04-20T08:53:42;99853.03;;;19.34;41.54
49102;BME280;34913;47.520;19.186;2023-04-20T08:56:08;99846.56;;;19.28;43.79
49102;BME280;34913;47.520;19.186;2023-04-20T08:58:33;99847.47;;;19.65;42.06
49102;BME280;34913;47.520;19.186;2023-04-20T09:00:59;99850.34;;;19.19;41.79
49102;BME280;34913;47.520;19.186;2023-04-20T09:03:36;99842.94;;;19.21;41.76
49102;BME280;34913;47.520;19.186;2023-04-20T09:06:13;99851.06;;;19.42;42.11
49102;BME280;34913;47.520;19.186;2023-04-20T09:08:40;99844.94;;;19.48;42.14
49102;BME280;34913;47.520;19.186;2023-04-20T09:11:19;99842.34;;;19.55;40.85
49102;BME280;34913;47.520;19.186;2023-04-20T09:14:03;99839.50;;;19.93;40.64
49102;BME280;34913;47.520;19.186;2023-04-20T09:16:33;99845.84;;;20.28;41.37
49102;BME280;34913;47.520;19.186;2023-04-20T09:18:59;99845.50;;;20.38;39.69
49102;BME280;34913;47.520;19.186;2023-04-20T09:21:25;99839.00;;;20.25;38.48
49102;BME280;34913;47.520;19.186;2023-04-20T09:24:10;99844.66;;;20.30;38.58
49102;BME280;34913;47.520;19.186;2023-04-20T09:26:35;99845.72;;;20.57;37.11
49102;BME280;34913;47.520;19.186;2023-04-20T09:29:01;99840.25;;;20.29;37.83
49102;BME280;34913;47.520;19.186;2023-04-20T09:31:27;99844.81;;;20.29;38.40
49102;BME280;34913;47.520;19.186;2023-04-20T09:34:03;99835.69;;;20.30;37.17
49102;BME280;34913;47.520;19.186;2023-04-20T09:36:39;99834.94;;;20.57;35.74
49102;BME280;34913;47.520;19.186;2023-04-20T09:39:11;99829.88;;;21.04;37.41
49102;BME280;34913;47.520;19.186;2023-04-20T09:41:39;99832.25;;;20.57;37.62
49102;BME280;34913;47.520;19.186;2023-04-20T09:44:06;99834.38;;;20.19;37.53
49102;BME280;34913;47.520;19.186;2023-04-20T09:46:33;99844.00;;;19.71;37.64
49102;BME280;34913;47.520;19.186;2023-04-20T09:49:02;99837.06;;;19.62;38.13
49102;BME280;34913;47.520;19.186;2023-04-20T09:51:28;99838.41;;;20.30;36.44
49102;BME280;34913;47.520;19.186;2023-04-20T09:53:57;99828.00;;;20.70;36.04
49102;BME280;34913;47.520;19.186;2023-04-20T09:56:24;99827.22;;;21.17;37.33
49102;BME280;34913;47.520;19.186;2023-04-20T09:58:51;99821.78;;;21.04;36.92
49102;BME280;34913;47.520;19.186;2023-04-20T10:01:17;99818.66;;;20.44;37.56
49102;BME280;34913;47.520;19.186;2023-04-20T10:03:43;99832.03;;;19.73;36.89
49102;BME280;34913;47.520;19.186;2023-04-20T10:06:23;99837.44;;;19.95;37.22
49102;BME280;34913;47.520;19.186;2023-04-20T10:08:49;99835.25;;;20.05;36.58
49102;BME280;34913;47.520;19.186;2023-04-20T10:13:57;99815.34;;;20.70;34.77
49102;BME280;34913;47.520;19.186;2023-04-20T10:16:24;99809.31;;;21.03;35.72
49102;BME280;34913;47.520;19.186;2023-04-20T10:18:59;99813.47;;;20.71;35.43
49102;BME280;34913;47.520;19.186;2023-04-20T10:21:32;99814.97;;;20.52;35.64
49102;BME280;34913;47.520;19.186;2023-04-20T10:23:58;99815.72;;;20.67;36.44
49102;BME280;34913;47.520;19.186;2023-04-20T10:26:43;99805.63;;;21.10;35.89
49102;BME280;34913;47.520;19.186;2023-04-20T10:29:23;99812.06;;;21.16;34.42
49102;BME280;34913;47.520;19.186;2023-04-20T10:31:49;99808.91;;;21.40;36.11
49102;BME280;34913;47.520;19.186;2023-04-20T10:34:15;99805.81;;;20.74;36.69
49102;BME280;34913;47.520;19.186;2023-04-20T10:36:41;99810.88;;;20.34;37.55
49102;BME280;34913;47.520;19.186;2023-04-20T10:39:16;99814.66;;;19.97;38.55
49102;BME280;34913;47.520;19.186;2023-04-20T10:41:52;99812.09;;;19.68;39.70
49102;BME280;34913;47.520;19.186;2023-04-20T10:44:18;99802.19;;;19.24;40.10
49102;BME280;34913;47.520;19.186;2023-04-20T10:46:47;99799.28;;;19.91;40.19
49102;BME280;34913;47.520;19.186;2023-04-20T10:49:13;99796.97;;;20.31;38.30
49102;BME280;34913;47.520;19.186;2023-04-20T10:51:48;99798.97;;;20.72;39.65
49102;BME280;34913;47.520;19.186;2023-04-20T10:54:14;99788.81;;;21.15;39.02
49102;BME280;34913;47.520;19.186;2023-04-20T10:56:48;99793.53;;;20.65;37.63
49102;BME280;34913;47.520;19.186;2023-04-20T10:59:15;99789.31;;;20.34;38.45
49102;BME280;34913;47.520;19.186;2023-04-20T11:01:41;99792.75;;;20.00;38.19
49102;BME280;34913;47.520;19.186;2023-04-20T11:04:08;99789.72;;;19.89;39.11
49102;BME280;34913;47.520;19.186;2023-04-20T11:06:35;99785.16;;;19.89;38.56
49102;BME280;34913;47.520;19.186;2023-04-20T11:09:01;99791.66;;;19.95;39.05
49102;BME280;34913;47.520;19.186;2023-04-20T11:11:27;99782.25;;;20.33;38.59
49102;BME280;34913;47.520;19.186;2023-04-20T11:14:10;99772.06;;;20.85;36.94
49102;BME280;34913;47.520;19.186;2023-04-20T11:16:37;99771.63;;;20.81;37.97
49102;BME280;34913;47.520;19.186;2023-04-20T11:19:03;99776.91;;;20.40;37.50
49102;BME280;34913;47.520;19.186;2023-04-20T11:21:37;99785.03;;;19.76;36.94
49102;BME280;34913;47.520;19.186;2023-04-20T11:24:03;99773.19;;;19.05;38.11
49102;BME280;34913;47.520;19.186;2023-04-20T11:26:36;99781.19;;;18.98;37.26
49102;BME280;34913;47.520;19.186;2023-04-20T11:29:02;99773.38;;;19.03;40.19
49102;BME280;34913;47.520;19.186;2023-04-20T11:31:29;99772.72;;;19.16;38.67
49102;BME280;34913;47.520;19.186;2023-04-20T11:33:54;99765.94;;;19.92;38.45
49102;BME280;34913;47.520;19.186;2023-04-20T11:36:24;99769.97;;;20.52;36.98
49102;BME280;34913;47.520;19.186;2023-04-20T11:38:51;99765.03;;;20.90;36.09
49102;BME280;34913;47.520;19.186;2023-04-20T11:41:16;99758.53;;;21.19;37.47
49102;BME280;34913;47.520;19.186;2023-04-20T11:43:42;99761.03;;;21.21;35.61
49102;BME280;34913;47.520;19.186;2023-04-20T11:46:16;99770.75;;;21.63;36.37
49102;BME280;34913;47.520;19.186;2023-04-20T11:48:42;99765.06;;;20.97;36.59
49102;BME280;34913;47.520;19.186;2023-04-20T11:51:08;99758.66;;;20.63;37.16
49102;BME280;34913;47.520;19.186;2023-04-20T11:53:33;99769.56;;;20.27;37.16
49102;BME280;34913;47.520;19.186;2023-04-20T11:55:59;99777.53;;;19.93;37.60
49102;BME280;34913;47.520;19.186;2023-04-20T11:58:24;99767.53;;;19.87;37.92
49102;BME280;34913;47.520;19.186;2023-04-20T12:00:50;99770.38;;;20.00;37.46
49102;BME280;34913;47.520;19.186;2023-04-20T12:03:15;99770.78;;;19.82;36.80
49102;BME280;34913;47.520;19.186;2023-04-20T12:05:41;99768.38;;;19.87;36.93
49102;BME280;34913;47.520;19.186;2023-04-20T12:08:07;99768.09;;;20.03;38.18
49102;BME280;34913;47.520;19.186;2023-04-20T12:10:33;99761.75;;;20.11;37.41
49102;BME280;34913;47.520;19.186;2023-04-20T12:12:58;99754.28;;;20.34;36.15
49102;BME280;34913;47.520;19.186;2023-04-20T12:15:25;99763.28;;;20.20;34.89
49102;BME280;34913;47.520;19.186;2023-04-20T12:17:51;99755.25;;;20.48;36.83
49102;BME280;34913;47.520;19.186;2023-04-20T12:20:17;99755.50;;;20.60;34.63
49102;BME280;34913;47.520;19.186;2023-04-20T12:22:42;99756.28;;;20.82;35.28
49102;BME280;34913;47.520;19.186;2023-04-20T12:25:08;99757.97;;;20.55;33.72
49102;BME280;34913;47.520;19.186;2023-04-20T12:27:33;99762.56;;;20.12;35.12
49102;BME280;34913;47.520;19.186;2023-04-20T12:29:59;99755.09;;;20.07;35.61
49102;BME280;34913;47.520;19.186;2023-04-20T12:32:24;99758.44;;;19.88;36.81
49102;BME280;34913;47.520;19.186;2023-04-20T12:34:50;99755.34;;;19.69;36.17
49102;BME280;34913;47.520;19.186;2023-04-20T12:37:15;99754.66;;;19.46;36.18
49102;BME280;34913;47.520;19.186;2023-04-20T12:39:41;99750.66;;;19.42;36.19
49102;BME280;34913;47.520;19.186;2023-04-20T12:42:06;99755.72;;;19.66;36.40
49102;BME280;34913;47.520;19.186;2023-04-20T12:44:31;99749.78;;;19.71;37.15
49102;BME280;34913;47.520;19.186;2023-04-20T12:46:57;99745.78;;;19.67;36.45
49102;BME280;34913;47.520;19.186;2023-04-20T12:49:22;99739.69;;;19.79;36.06
49102;BME280;34913;47.520;19.186;2023-04-20T12:51:48;99733.06;;;20.53;36.77
49102;BME280;34913;47.520;19.186;2023-04-20T12:54:13;99731.63;;;20.91;34.76
49102;BME280;34913;47.520;19.186;2023-04-20T12:56:39;99737.56;;;21.22;33.85